Airfield :
LOGIN :

Register | Disclaimer

   EN    FR    IT 

 










Legend :    VFR   Marginal VFR   IFR   Intensive IFR   Very Intensive IFR
Visi :
Ceiling :
>= 8 km
>= 3000ft
5 to 8 km
1000 to 3000 ft
1500m to 5 km
500 to 1000 ft
800 to 1500m
200 to 500 ft
< 800m
< 200 ft
Symbols :   Thunderstorms  Fog  Heavy snow  Heavy precipitations  Wind > 20 kt
SIGMETs :     Misc.  Thunderstorms  Icing  Turbulence  Mountain Waves  Volcanic Ashes






- Airport Elevation : 2026 ft
- IATA code : TOJ


LETO - Madrid Torrejon

CURRENT METAR :
  • 291400Z 23020KT 200V260 9999 SCT025 14/08 Q1012 NOSIG

EXPIRED METARs :
  • 291300Z 23017KT 200V270 9999 SCT025 14/08 Q1013 NOSIG
  • 291200Z 25015KT 210V280 9999 BKN022 13/07 Q1014 NOSIG

TAF TAF LETO
Valid from the 29 at 12:00 until the 01 at 12:00 UTC


291100Z 2912/0112 24016KT 9999 SCT025 BKN045 TX16/2915Z TN05/0106Z
PROB40
TEMPO 2912/2920 24015G30KT
PROB30
TEMPO 2912/2918 23020G35KT 4500 DZRA BKN014
PROB30
TEMPO 2912/2917 4500 DZRA BKN014
TEMPO 2923/0109 24010KT



MET'MAP, your aeronautical weather chart ! - Copyright ORBIFLY December 2007 - Disclaimer

ORBIFLY MET'MAP TEAM :

Programming & Development : Alexandra Zaïnal
Concept & original design : Baudouin d'Aumeries
Assistance for programming : Marc-Olivier Méhu
Technical & hardware support : Manuel Goepfert

Contact : metmap@orbifly.com




SOURCES & CREDITS :

   NOAA